Time;durP1;ratioP1;P1;durP2;ratioP2;P2;SDS_P1;SDS_P2;PMS_P1;PMS_P2;Temp;Humidity;BMP_temperature;BMP_pressure;BME280_temperature;BME280_humidity;BME280_pressure;Samples;Min_cycle;Max_cycle;Signal;HPM_P1;HPM_P2
2021/05/12 00:00:22;;;;;;;20.23;14.60;;;13.20;99.90;;;;;;5056098;28;20030;-73
2021/05/12 00:02:51;;;;;;;21.98;14.38;;;13.20;99.90;;;;;;5056266;28;20025;-73
2021/05/12 00:05:21;;;;;;;22.85;15.43;;;13.20;99.90;;;;;;5055021;28;20109;-73
2021/05/12 00:07:49;;;;;;;21.63;15.07;;;13.20;99.90;;;;;;5056072;28;20328;-73
2021/05/12 00:10:17;;;;;;;23.05;15.55;;;13.20;99.90;;;;;;5056580;28;20472;-73
2021/05/12 00:12:44;;;;;;;22.42;14.20;;;13.20;99.90;;;;;;5057507;28;20029;-73
2021/05/12 00:15:18;;;;;;;22.23;15.07;;;13.20;99.90;;;;;;5056921;28;20021;-73
2021/05/12 00:17:48;;;;;;;21.60;14.18;;;13.20;99.90;;;;;;5057062;28;20068;-73
2021/05/12 00:20:24;;;;;;;23.02;14.80;;;13.20;99.90;;;;;;5056845;28;20020;-73
2021/05/12 00:23:02;;;;;;;;;;;13.20;99.90;;;;;;5057047;28;20099;-73
2021/05/12 00:25:31;;;;;;;22.60;13.95;;;13.20;99.90;;;;;;5056934;28;19904;-73
2021/05/12 00:27:58;;;;;;;21.35;14.55;;;13.20;99.90;;;;;;5056174;28;20017;-73
2021/05/12 00:30:27;;;;;;;21.33;15.38;;;13.20;99.90;;;;;;5055858;28;20021;-73
2021/05/12 00:32:54;;;;;;;23.65;15.52;;;13.20;99.90;;;;;;5055782;28;20017;-73
2021/05/12 00:35:22;;;;;;;21.15;15.00;;;13.20;99.90;;;;;;5055699;28;20017;-73
2021/05/12 00:37:50;;;;;;;21.02;14.77;;;13.20;99.90;;;;;;5056346;28;20167;-73
2021/05/12 00:40:18;;;;;;;21.98;15.02;;;13.20;99.90;;;;;;5059508;28;20017;-73
2021/05/12 00:42:46;;;;;;;25.50;16.05;;;13.10;99.90;;;;;;5059465;28;20021;-73
2021/05/12 00:45:21;;;;;;;25.88;16.83;;;13.10;99.90;;;;;;5060305;28;20118;-73
2021/05/12 00:47:50;;;;;;;26.48;17.08;;;13.10;99.90;;;;;;5060517;28;20471;-73
2021/05/12 00:50:21;;;;;;;28.27;17.95;;;13.10;99.90;;;;;;5059195;28;20029;-73
2021/05/12 00:52:49;;;;;;;28.88;17.85;;;13.10;99.90;;;;;;5059216;28;20025;-73
2021/05/12 00:55:18;;;;;;;29.40;17.10;;;13.10;99.90;;;;;;5060099;28;20044;-73
2021/05/12 00:57:45;;;;;;;30.05;18.63;;;13.10;99.90;;;;;;5059072;28;20021;-73
2021/05/12 01:00:16;;;;;;;28.70;18.55;;;13.10;99.90;;;;;;5059631;28;20449;-73
2021/05/12 01:02:43;;;;;;;27.85;18.48;;;13.10;99.90;;;;;;5059386;28;20021;-74
2021/05/12 01:05:34;;;;;;;31.73;19.90;;;13.10;99.90;;;;;;5059411;28;20096;-73
2021/05/12 01:08:08;;;;;;;33.22;21.15;;;13.10;99.90;;;;;;5040370;28;20065;-73
2021/05/12 01:10:36;;;;;;;29.67;19.42;;;13.10;99.90;;;;;;5059020;28;20052;-73
2021/05/12 01:13:04;;;;;;;31.65;21.17;;;13.10;99.90;;;;;;5058830;28;20103;-73
2021/05/12 01:15:31;;;;;;;31.00;19.90;;;13.10;99.90;;;;;;5058920;28;20043;-73
2021/05/12 01:18:16;;;;;;;35.30;19.80;;;13.10;99.90;;;;;;5058928;28;20021;-73
2021/05/12 01:21:01;;;;;;;33.60;21.30;;;13.10;99.90;;;;;;5059752;28;20024;-73
2021/05/12 01:23:34;;;;;;;36.23;20.27;;;13.10;99.90;;;;;;5058321;28;20318;-73
2021/05/12 01:26:10;;;;;;;32.03;18.88;;;13.10;99.90;;;;;;5059595;28;20078;-73
2021/05/12 01:28:40;;;;;;;29.00;18.92;;;13.10;99.90;;;;;;5059613;28;20029;-73
2021/05/12 01:31:22;;;;;;;30.10;18.88;;;13.10;99.90;;;;;;5058542;28;20039;-73
2021/05/12 01:33:51;;;;;;;27.90;17.77;;;13.10;99.90;;;;;;5059255;28;20360;-73
2021/05/12 01:36:18;;;;;;;27.92;16.98;;;13.10;99.90;;;;;;5058452;28;20368;-73
2021/05/12 01:38:49;;;;;;;28.40;17.92;;;13.10;99.90;;;;;;5058729;28;20021;-73
2021/05/12 01:41:18;;;;;;;26.48;16.63;;;13.10;99.90;;;;;;5058913;28;20351;-73
2021/05/12 01:43:46;;;;;;;26.15;16.83;;;13.00;99.90;;;;;;5057255;28;20036;-73
2021/05/12 01:46:14;;;;;;;30.38;18.35;;;13.00;99.90;;;;;;5058574;28;20159;-73
2021/05/12 01:48:42;;;;;;;29.58;18.73;;;13.00;99.90;;;;;;5057799;28;20029;-73
2021/05/12 01:51:12;;;;;;;27.13;17.42;;;13.00;99.90;;;;;;5058766;28;20112;-73
2021/05/12 01:53:41;;;;;;;26.30;16.58;;;13.00;99.90;;;;;;5059144;28;20021;-73
2021/05/12 01:56:10;;;;;;;24.42;15.75;;;13.00;99.90;;;;;;5059056;28;20433;-73
2021/05/12 01:58:38;;;;;;;22.40;14.77;;;13.00;99.90;;;;;;5058984;28;20029;-74
2021/05/12 02:01:05;;;;;;;21.60;13.98;;;12.90;99.90;;;;;;5058960;28;20075;-73
2021/05/12 02:03:33;;;;;;;22.77;13.88;;;12.90;99.90;;;;;;5058877;28;20032;-73
2021/05/12 02:06:01;;;;;;;17.02;11.20;;;12.90;99.90;;;;;;5057717;28;20029;-73
2021/05/12 02:08:30;;;;;;;14.13;9.88;;;12.90;99.90;;;;;;5058499;28;20372;-73
2021/05/12 02:11:01;;;;;;;14.15;9.85;;;12.90;99.90;;;;;;5057930;28;20320;-73
2021/05/12 02:13:30;;;;;;;16.63;10.52;;;12.80;99.90;;;;;;5057771;28;20056;-73
2021/05/12 02:16:00;;;;;;;16.38;10.63;;;12.80;99.90;;;;;;5056696;28;20421;-73
2021/05/12 02:18:27;;;;;;;18.65;12.20;;;12.80;99.90;;;;;;5056741;28;20039;-73
2021/05/12 02:20:54;;;;;;;20.65;12.52;;;12.80;99.90;;;;;;5058246;28;20048;-73
2021/05/12 02:23:24;;;;;;;18.17;11.13;;;12.80;99.90;;;;;;5057409;28;20515;-73
2021/05/12 02:25:52;;;;;;;17.50;11.30;;;12.70;99.90;;;;;;5057311;28;20033;-73
2021/05/12 02:28:19;;;;;;;16.42;10.77;;;12.70;99.90;;;;;;5058449;28;20022;-73
2021/05/12 02:30:47;;;;;;;15.80;10.45;;;12.70;99.90;;;;;;5058779;28;20017;-73
2021/05/12 02:33:14;;;;;;;16.63;10.10;;;12.70;99.90;;;;;;5058227;28;20025;-73
2021/05/12 02:35:42;;;;;;;15.85;9.82;;;12.60;99.90;;;;;;5058340;28;20017;-73
2021/05/12 02:38:09;;;;;;;16.58;9.70;;;12.60;99.90;;;;;;5058370;28;20024;-73
2021/05/12 02:40:37;;;;;;;16.80;10.43;;;12.60;99.90;;;;;;5057271;28;20318;-73
2021/05/12 02:43:05;;;;;;;19.02;9.50;;;12.60;99.90;;;;;;5057715;28;20020;-73
2021/05/12 02:45:33;;;;;;;18.35;10.95;;;12.50;99.90;;;;;;5057167;28;20373;-73
2021/05/12 02:48:02;;;;;;;17.40;11.07;;;12.50;99.90;;;;;;5055871;28;20051;-73
2021/05/12 02:50:40;;;;;;;17.70;10.52;;;12.50;99.90;;;;;;5057125;28;20422;-73
2021/05/12 02:53:08;;;;;;;18.38;11.13;;;12.50;99.90;;;;;;5055862;28;20025;-73
2021/05/12 02:55:37;;;;;;;18.55;11.00;;;12.50;99.90;;;;;;5057225;28;20025;-73
2021/05/12 02:58:06;;;;;;;19.73;11.88;;;12.50;99.90;;;;;;5056757;28;20116;-73
2021/05/12 03:00:36;;;;;;;22.15;12.80;;;12.50;99.90;;;;;;5057250;28;20017;-73
2021/05/12 03:03:04;;;;;;;19.27;11.63;;;12.50;99.90;;;;;;5056493;28;20375;-73
2021/05/12 03:05:32;;;;;;;22.90;12.98;;;12.50;99.90;;;;;;5056585;28;20360;-73
2021/05/12 03:08:01;;;;;;;17.17;11.05;;;12.50;99.90;;;;;;5057983;28;20024;-74
2021/05/12 03:10:33;;;;;;;21.15;11.30;;;12.50;99.90;;;;;;5056506;28;20325;-73
2021/05/12 03:13:03;;;;;;;17.70;11.85;;;12.50;99.90;;;;;;5057061;28;20032;-74
2021/05/12 03:15:31;;;;;;;20.00;12.18;;;12.50;99.90;;;;;;5056859;28;20484;-73
2021/05/12 03:17:59;;;;;;;22.55;12.35;;;12.40;99.90;;;;;;5056837;28;20032;-74
2021/05/12 03:20:29;;;;;;;19.92;13.23;;;12.40;99.90;;;;;;5055642;28;20325;-73
2021/05/12 03:22:58;;;;;;;22.17;12.68;;;12.40;99.90;;;;;;5056513;28;20120;-73
2021/05/12 03:25:26;;;;;;;21.65;12.00;;;12.40;99.90;;;;;;5056524;28;20044;-73
2021/05/12 03:27:55;;;;;;;19.08;12.52;;;12.40;99.90;;;;;;5055476;28;20028;-73
2021/05/12 03:30:32;;;;;;;19.35;11.82;;;12.40;99.90;;;;;;5057123;28;20060;-73
2021/05/12 03:33:00;;;;;;;19.55;11.18;;;12.40;99.90;;;;;;5056189;28;20050;-73
2021/05/12 03:35:28;;;;;;;20.13;12.25;;;12.40;99.90;;;;;;5057571;28;20368;-73
2021/05/12 03:37:59;;;;;;;17.38;10.30;;;12.40;99.90;;;;;;5056189;28;20024;-73
2021/05/12 03:40:27;;;;;;;17.52;10.75;;;12.40;99.90;;;;;;5057211;28;20024;-73
2021/05/12 03:42:56;;;;;;;17.27;11.07;;;12.50;99.90;;;;;;5057265;28;20021;-73
2021/05/12 03:45:24;;;;;;;17.63;11.48;;;12.40;99.90;;;;;;5055165;28;20032;-73
2021/05/12 03:47:53;;;;;;;19.30;11.60;;;12.50;99.90;;;;;;5056510;28;20071;-73
2021/05/12 03:50:24;;;;;;;22.10;12.40;;;12.50;99.90;;;;;;5056530;28;20025;-73
2021/05/12 03:52:52;;;;;;;21.38;12.93;;;12.50;99.90;;;;;;5056559;28;20052;-73
2021/05/12 03:55:20;;;;;;;19.13;11.70;;;12.40;99.90;;;;;;5056692;28;20063;-73
2021/05/12 03:57:48;;;;;;;19.95;11.90;;;12.50;99.90;;;;;;5055889;28;20021;-73
2021/05/12 04:00:17;;;;;;;20.23;12.88;;;12.40;99.90;;;;;;5056162;28;20018;-73
2021/05/12 04:02:45;;;;;;;20.08;12.70;;;12.40;99.90;;;;;;5057244;28;20092;-73
2021/05/12 04:05:15;;;;;;;20.23;11.65;;;12.40;99.90;;;;;;5057047;28;20116;-73
2021/05/12 04:07:43;;;;;;;26.48;12.75;;;12.40;99.90;;;;;;5057047;28;20107;-73
2021/05/12 04:10:12;;;;;;;25.10;14.38;;;12.40;99.90;;;;;;5056965;28;20031;-73
2021/05/12 04:12:40;;;;;;;23.65;13.52;;;12.40;99.90;;;;;;5058369;28;20310;-73
2021/05/12 04:15:09;;;;;;;21.15;12.63;;;12.40;99.90;;;;;;5061093;28;20025;-73
2021/05/12 04:17:38;;;;;;;21.60;14.00;;;12.30;99.90;;;;;;5059057;28;20421;-73
2021/05/12 04:20:11;;;;;;;25.15;12.68;;;12.30;99.90;;;;;;5059925;28;20033;-73
2021/05/12 04:22:39;;;;;;;21.40;13.18;;;12.30;99.90;;;;;;5058519;28;20041;-73
2021/05/12 04:25:11;;;;;;;20.80;12.75;;;12.40;99.90;;;;;;5060090;28;20035;-73
2021/05/12 04:27:39;;;;;;;23.27;12.57;;;12.30;99.90;;;;;;5059828;28;20320;-73
2021/05/12 04:30:10;;;;;;;22.13;13.13;;;12.30;99.90;;;;;;5058670;28;20035;-73
2021/05/12 04:32:38;;;;;;;20.70;13.18;;;12.30;99.90;;;;;;5060160;28;20095;-73
2021/05/12 04:35:06;;;;;;;19.45;11.88;;;12.40;99.90;;;;;;5060108;28;20057;-73
2021/05/12 04:37:34;;;;;;;20.35;12.43;;;12.40;99.90;;;;;;5060556;28;20429;-73
2021/05/12 04:40:03;;;;;;;18.48;11.43;;;12.40;99.90;;;;;;5060523;28;20479;-73
2021/05/12 04:42:31;;;;;;;18.15;11.50;;;12.40;99.90;;;;;;5059389;28;20413;-73
2021/05/12 04:44:59;;;;;;;19.85;12.27;;;12.40;99.90;;;;;;5060699;28;20017;-73
2021/05/12 04:47:27;;;;;;;18.55;11.63;;;12.40;99.90;;;;;;5060503;28;20017;-73
2021/05/12 04:49:54;;;;;;;19.23;12.35;;;12.40;99.90;;;;;;5060292;28;20049;-73
2021/05/12 04:52:22;;;;;;;21.88;12.48;;;12.50;99.90;;;;;;5059523;28;20313;-73
2021/05/12 04:54:51;;;;;;;19.08;12.05;;;12.50;99.90;;;;;;5059227;28;20029;-73
2021/05/12 04:57:18;;;;;;;17.30;11.38;;;12.50;99.90;;;;;;5058077;28;20053;-74
2021/05/12 04:59:46;;;;;;;19.73;11.85;;;12.50;99.90;;;;;;5058154;28;20021;-78
2021/05/12 05:02:15;;;;;;;20.55;10.57;;;12.60;99.90;;;;;;5059252;28;20017;-74
2021/05/12 05:04:43;;;;;;;18.80;12.13;;;12.60;99.90;;;;;;5059123;28;20021;-73
2021/05/12 05:07:10;;;;;;;17.70;11.55;;;12.60;99.90;;;;;;5059984;28;20118;-73
2021/05/12 05:09:38;;;;;;;23.83;13.20;;;12.60;99.90;;;;;;5060001;28;20060;-73
2021/05/12 05:12:06;;;;;;;19.35;12.40;;;12.70;99.90;;;;;;5060257;28;20029;-73
2021/05/12 05:14:34;;;;;;;16.85;11.52;;;12.70;99.90;;;;;;5059203;28;20029;-72
2021/05/12 05:17:03;;;;;;;18.60;12.20;;;12.70;99.90;;;;;;5059654;28;20017;-72
2021/05/12 05:19:32;;;;;;;22.45;13.68;;;12.80;99.90;;;;;;5060375;28;20486;-72
2021/05/12 05:22:00;;;;;;;21.58;13.23;;;12.80;99.90;;;;;;5059918;28;20047;-73
2021/05/12 05:24:29;;;;;;;20.05;12.45;;;12.80;99.90;;;;;;5057824;28;20039;-72
2021/05/12 05:26:56;;;;;;;18.63;12.00;;;12.90;99.90;;;;;;5058722;28;20337;-73
2021/05/12 05:29:24;;;;;;;19.63;12.93;;;12.90;99.90;;;;;;5059078;28;20409;-73
2021/05/12 05:31:52;;;;;;;20.58;13.07;;;13.00;99.90;;;;;;5059512;28;20469;-73
2021/05/12 05:34:20;;;;;;;19.25;12.98;;;13.00;99.90;;;;;;5057432;28;20028;-74
2021/05/12 05:36:48;;;;;;;19.10;12.00;;;13.00;99.90;;;;;;5058754;28;20294;-74
2021/05/12 05:39:16;;;;;;;18.90;12.25;;;13.10;99.90;;;;;;5057292;28;20025;-75
2021/05/12 05:41:43;;;;;;;19.08;11.73;;;13.10;99.90;;;;;;5059858;28;20017;-76
2021/05/12 05:44:11;;;;;;;21.73;12.18;;;13.20;99.90;;;;;;5058015;28;20025;-75
2021/05/12 05:46:39;;;;;;;20.05;12.43;;;13.20;99.90;;;;;;5059241;28;20021;-76
2021/05/12 05:49:06;;;;;;;17.10;11.73;;;13.20;99.90;;;;;;5059695;28;20025;-74
2021/05/12 05:51:34;;;;;;;16.67;10.48;;;13.20;99.90;;;;;;5059146;28;20103;-76
2021/05/12 05:54:02;;;;;;;16.58;11.45;;;13.30;99.90;;;;;;5059309;28;20021;-75
2021/05/12 05:56:30;;;;;;;17.30;11.15;;;13.30;99.90;;;;;;5058591;28;20021;-79
2021/05/12 05:58:58;;;;;;;15.63;11.18;;;13.30;99.90;;;;;;5058181;28;20053;-78
2021/05/12 06:01:26;;;;;;;14.75;10.38;;;13.30;99.90;;;;;;5057099;28;20464;-76
2021/05/12 06:03:54;;;;;;;19.83;10.93;;;13.30;99.90;;;;;;5056730;28;20025;-77
2021/05/12 06:06:22;;;;;;;16.13;11.48;;;13.40;99.90;;;;;;5057994;28;20027;-76
2021/05/12 06:08:49;;;;;;;15.82;10.20;;;13.40;99.90;;;;;;5056897;28;20021;-79
2021/05/12 06:11:17;;;;;;;15.68;10.85;;;13.40;99.90;;;;;;5058068;28;20119;-75
2021/05/12 06:13:46;;;;;;;15.23;10.65;;;13.50;99.90;;;;;;5057224;28;20021;-75
2021/05/12 06:16:16;;;;;;;13.82;9.15;;;13.50;99.90;;;;;;5058907;28;20064;-74
2021/05/12 06:18:44;;;;;;;14.00;9.82;;;13.50;99.90;;;;;;5057451;28;20363;-74
2021/05/12 06:21:15;;;;;;;13.10;9.60;;;13.50;99.90;;;;;;5057434;28;20048;-75
2021/05/12 06:23:43;;;;;;;17.52;10.68;;;13.60;99.90;;;;;;5057216;28;20385;-75
2021/05/12 06:26:19;;;;;;;12.25;8.98;;;13.60;99.90;;;;;;5058663;28;20032;-74
2021/05/12 06:28:49;;;;;;;12.68;9.20;;;13.70;99.90;;;;;;5057424;28;20048;-74
2021/05/12 06:31:16;;;;;;;14.60;9.45;;;13.80;99.90;;;;;;5057727;28;20055;-77
2021/05/12 06:33:47;;;;;;;11.32;8.82;;;13.80;99.90;;;;;;5057300;28;20017;-75
2021/05/12 06:36:16;;;;;;;12.43;8.90;;;13.80;99.90;;;;;;5055981;28;20108;-76
2021/05/12 06:38:47;;;;;;;14.13;9.35;;;13.90;99.90;;;;;;5057363;28;20147;-74
2021/05/12 06:41:15;;;;;;;16.00;9.35;;;14.00;99.90;;;;;;5057331;28;20317;-74
2021/05/12 06:43:43;;;;;;;13.27;9.63;;;14.00;99.90;;;;;;5056432;28;20446;-75
2021/05/12 06:46:10;;;;;;;15.98;9.85;;;14.00;99.90;;;;;;5058658;28;20055;-74
2021/05/12 06:48:39;;;;;;;14.98;10.50;;;14.10;99.90;;;;;;5058630;28;20408;-82
2021/05/12 06:51:07;;;;;;;14.25;9.18;;;14.20;99.90;;;;;;5058438;28;20110;-74
2021/05/12 06:53:36;;;;;;;17.05;9.50;;;14.30;99.90;;;;;;5057858;28;20024;-74
2021/05/12 06:56:05;;;;;;;12.95;8.77;;;14.30;99.90;;;;;;5058299;28;20028;-74
2021/05/12 06:58:34;;;;;;;14.13;9.38;;;14.40;99.90;;;;;;5056891;28;20032;-74
2021/05/12 07:01:03;;;;;;;13.77;9.43;;;14.40;99.90;;;;;;5057746;28;20028;-74
2021/05/12 07:03:30;;;;;;;14.40;9.23;;;14.40;99.90;;;;;;5057086;28;20100;-74
2021/05/12 07:06:00;;;;;;;13.85;9.40;;;14.40;99.90;;;;;;5057214;28;20025;-74
2021/05/12 07:08:27;;;;;;;13.40;10.05;;;14.40;99.90;;;;;;5057460;28;20017;-74
2021/05/12 07:10:56;;;;;;;15.93;10.73;;;14.40;99.90;;;;;;5056742;28;20017;-74
2021/05/12 07:13:23;;;;;;;13.35;10.00;;;14.40;99.90;;;;;;5055661;28;20052;-73
2021/05/12 07:15:51;;;;;;;14.93;10.27;;;14.40;99.90;;;;;;5056893;28;20468;-74
2021/05/12 07:18:19;;;;;;;16.40;10.40;;;14.30;99.90;;;;;;5056880;28;20025;-74
2021/05/12 07:20:46;;;;;;;13.57;10.23;;;14.30;99.90;;;;;;5057518;28;20071;-73
2021/05/12 07:23:22;;;;;;;15.80;10.48;;;14.30;99.90;;;;;;5056087;28;20048;-73
2021/05/12 07:25:50;;;;;;;15.63;10.73;;;14.30;99.90;;;;;;5056368;28;20436;-74
2021/05/12 07:28:19;;;;;;;15.05;10.82;;;14.30;99.90;;;;;;5057489;28;20033;-73
2021/05/12 07:30:48;;;;;;;16.80;11.02;;;14.30;99.90;;;;;;5057398;28;20436;-74
2021/05/12 07:33:15;;;;;;;17.40;10.80;;;14.40;99.90;;;;;;5056017;28;20033;-74
2021/05/12 07:35:46;;;;;;;15.77;9.93;;;14.40;99.90;;;;;;5055269;28;20430;-75
2021/05/12 07:38:14;;;;;;;18.48;11.98;;;14.30;99.90;;;;;;5056311;28;20100;-73
2021/05/12 07:40:42;;;;;;;17.67;12.00;;;14.30;99.90;;;;;;5056634;28;20071;-76
2021/05/12 07:43:11;;;;;;;16.25;11.23;;;14.40;99.90;;;;;;5056582;28;20022;-74
2021/05/12 07:45:40;;;;;;;17.00;11.05;;;14.40;99.90;;;;;;5056543;28;20029;-74
2021/05/12 07:48:13;;;;;;;20.65;12.55;;;14.50;99.90;;;;;;5056502;28;20024;-75
2021/05/12 07:50:42;;;;;;;21.15;10.95;;;14.60;99.90;;;;;;5056727;28;20052;-74
2021/05/12 07:53:10;;;;;;;23.45;11.40;;;14.60;99.90;;;;;;5057018;28;20049;-74
2021/05/12 07:55:39;;;;;;;17.30;12.48;;;14.60;99.90;;;;;;5057392;28;20028;-74
2021/05/12 07:58:06;;;;;;;18.55;11.38;;;14.60;99.90;;;;;;5055908;28;20047;-73
2021/05/12 08:00:35;;;;;;;19.00;12.40;;;14.60;99.90;;;;;;5058491;28;20195;-73
2021/05/12 08:03:03;;;;;;;21.83;12.30;;;14.60;99.90;;;;;;5057774;28;20025;-73
2021/05/12 08:05:30;;;;;;;18.48;11.68;;;14.60;99.90;;;;;;5057129;28;20060;-72
2021/05/12 08:07:59;;;;;;;18.95;11.40;;;14.60;99.90;;;;;;5056927;28;20021;-71
2021/05/12 08:10:27;;;;;;;15.57;11.55;;;14.70;99.90;;;;;;5056384;28;20060;-71
2021/05/12 08:12:55;;;;;;;19.98;12.63;;;14.80;99.90;;;;;;5054835;28;20025;-71
2021/05/12 08:15:23;;;;;;;16.63;11.85;;;14.90;99.90;;;;;;5055976;28;20384;-71
2021/05/12 08:17:52;;;;;;;17.20;11.80;;;15.00;99.90;;;;;;5056173;28;20045;-71
2021/05/12 08:20:21;;;;;;;23.65;13.05;;;15.10;99.90;;;;;;5056032;28;20021;-70
2021/05/12 08:22:49;;;;;;;26.13;12.80;;;15.10;99.90;;;;;;5055836;28;20040;-72
2021/05/12 08:25:17;;;;;;;23.55;12.70;;;15.20;99.90;;;;;;5056526;28;20099;-71
2021/05/12 08:27:45;;;;;;;17.38;11.98;;;15.20;99.90;;;;;;5056892;28;20060;-71
2021/05/12 08:30:13;;;;;;;17.30;12.18;;;15.20;99.90;;;;;;5057072;28;20025;-71
2021/05/12 08:32:41;;;;;;;15.27;11.57;;;15.20;99.90;;;;;;5055675;28;20021;-71
2021/05/12 08:35:09;;;;;;;22.33;12.50;;;15.20;99.90;;;;;;5056993;28;20025;-71
2021/05/12 08:37:37;;;;;;;21.98;12.40;;;15.10;99.90;;;;;;5055616;28;20032;-71
2021/05/12 08:40:05;;;;;;;17.13;11.27;;;15.10;99.90;;;;;;5056441;28;20021;-71
2021/05/12 08:42:33;;;;;;;21.83;12.30;;;15.10;99.90;;;;;;5055773;28;20028;-71
2021/05/12 08:45:00;;;;;;;20.90;12.75;;;15.00;99.90;;;;;;5055806;28;20420;-72
2021/05/12 08:47:29;;;;;;;18.80;12.52;;;15.00;99.90;;;;;;5055888;28;20032;-72
2021/05/12 08:49:58;;;;;;;19.55;12.27;;;15.00;99.90;;;;;;5055790;28;20025;-72
2021/05/12 08:52:33;;;;;;;17.50;11.82;;;15.10;99.90;;;;;;5056076;28;20017;-72
2021/05/12 08:55:02;;;;;;;19.73;12.15;;;15.20;99.90;;;;;;5055471;28;20029;-72
2021/05/12 08:57:29;;;;;;;16.90;11.45;;;15.20;99.90;;;;;;5056577;28;20090;-72
2021/05/12 08:59:57;;;;;;;18.38;12.30;;;15.20;99.90;;;;;;5058549;28;20045;-72
2021/05/12 09:02:25;;;;;;;17.92;11.30;;;15.30;99.90;;;;;;5060024;28;20028;-77
2021/05/12 09:04:52;;;;;;;15.80;9.88;;;15.40;99.90;;;;;;5060384;28;20079;-73
2021/05/12 09:07:20;;;;;;;17.45;11.48;;;15.60;99.90;;;;;;5058900;28;20029;-74
2021/05/12 09:09:50;;;;;;;14.98;9.35;;;15.70;99.90;;;;;;5060295;28;20024;-72
2021/05/12 09:12:18;;;;;;;19.52;9.60;;;15.90;99.90;;;;;;5059024;28;20048;-72
2021/05/12 09:14:59;;;;;;;14.48;9.55;;;15.90;99.90;;;;;;5059412;28;20075;-71
2021/05/12 09:17:39;;;;;;;14.10;8.68;;;15.90;99.90;;;;;;5059274;28;20028;-72
2021/05/12 09:20:29;;;;;;;15.30;9.07;;;16.00;99.90;;;;;;5058814;28;20028;-72
2021/05/12 09:23:03;;;;;;;14.98;9.75;;;16.20;99.90;;;;;;5057375;28;20344;-72
2021/05/12 09:25:32;;;;;;;12.80;8.50;;;16.30;99.90;;;;;;5059588;28;20021;-72
2021/05/12 09:28:12;;;;;;;17.30;9.02;;;16.50;99.90;;;;;;5059555;28;20064;-72
2021/05/12 09:30:48;;;;;;;13.75;8.85;;;16.60;99.90;;;;;;5060182;28;20421;-71
2021/05/12 09:33:33;;;;;;;12.82;8.77;;;16.80;99.90;;;;;;5059528;28;20021;-71
2021/05/12 09:36:01;;;;;;;13.23;8.80;;;16.90;99.90;;;;;;5059890;28;20317;-71
2021/05/12 09:38:31;;;;;;;12.82;8.20;;;16.90;99.90;;;;;;5059476;28;20021;-71
2021/05/12 09:41:13;;;;;;;10.75;7.80;;;17.00;99.90;;;;;;5059254;28;20324;-71
2021/05/12 09:43:49;;;;;;;11.63;7.30;;;17.10;99.90;;;;;;5058440;28;20385;-72
2021/05/12 09:46:24;;;;;;;12.95;6.93;;;17.20;99.90;;;;;;5059021;28;20032;-71
2021/05/12 09:49:00;;;;;;;15.77;8.45;;;17.40;99.90;;;;;;5058427;28;20067;-71
2021/05/12 09:51:31;;;;;;;13.60;7.72;;;17.60;99.90;;;;;;5058672;28;20361;-71
2021/05/12 09:54:11;;;;;;;16.00;7.18;;;17.60;99.50;;;;;;5058311;28;20115;-71
2021/05/12 09:57:00;;;;;;;14.75;8.52;;;17.60;99.70;;;;;;5058309;28;20023;-71
2021/05/12 09:59:32;;;;;;;11.77;7.28;;;17.50;98.50;;;;;;5059620;28;20017;-71
2021/05/12 10:02:03;;;;;;;16.17;8.30;;;17.30;99.10;;;;;;5058956;28;20401;-71
2021/05/12 10:04:47;;;;;;;12.73;7.60;;;17.20;98.40;;;;;;5060123;28;20362;-71
2021/05/12 10:07:21;;;;;;;12.15;7.68;;;17.20;99.10;;;;;;5059220;28;20021;-71
2021/05/12 10:09:51;;;;;;;12.75;8.35;;;17.20;98.80;;;;;;5058557;28;20025;-71
2021/05/12 10:12:32;;;;;;;9.32;6.75;;;17.20;99.50;;;;;;5058495;28;20421;-71
2021/05/12 10:15:00;;;;;;;14.98;8.40;;;17.40;98.30;;;;;;5057759;28;20028;-72
2021/05/12 10:17:31;;;;;;;9.27;7.15;;;17.50;98.30;;;;;;5058063;28;20017;-80
2021/05/12 10:19:59;;;;;;;10.10;7.18;;;17.60;97.60;;;;;;5056595;28;20409;-77
2021/05/12 10:22:26;;;;;;;12.52;7.25;;;17.60;97.70;;;;;;5057479;28;20340;-78
2021/05/12 10:24:54;;;;;;;8.35;6.03;;;17.70;96.90;;;;;;5057837;28;20423;-76
2021/05/12 10:27:30;;;;;;;9.52;5.93;;;17.90;96.70;;;;;;5057740;28;20028;-83
2021/05/12 10:30:03;;;;;;;7.97;4.57;;;18.10;94.90;;;;;;5058142;28;20057;-76
2021/05/12 10:32:37;;;;;;;8.40;4.80;;;18.10;93.60;;;;;;5058636;28;20033;-76
2021/05/12 10:35:16;;;;;;;9.70;5.00;;;18.20;94.40;;;;;;5058804;28;20035;-77
2021/05/12 10:37:51;;;;;;;7.82;5.18;;;18.30;93.10;;;;;;5058566;28;20024;-77
2021/05/12 10:40:31;;;;;;;7.50;5.20;;;18.40;92.10;;;;;;5057408;28;20024;-75
2021/05/12 10:43:11;;;;;;;7.35;4.78;;;18.50;90.80;;;;;;5058462;28;20017;-76
2021/05/12 10:46:01;;;;;;;9.10;4.93;;;18.50;90.60;;;;;;5057840;28;20025;-76
2021/05/12 10:48:47;;;;;;;7.82;5.20;;;18.50;90.30;;;;;;5058545;28;20028;-76
2021/05/12 10:51:40;;;;;;;9.38;4.97;;;18.50;89.60;;;;;;5057402;28;20440;-75
2021/05/12 10:54:09;;;;;;;6.50;3.92;;;18.40;90.20;;;;;;5056372;28;20318;-75
2021/05/12 10:56:42;;;;;;;8.85;5.53;;;18.30;90.40;;;;;;5057382;28;20030;-76
2021/05/12 10:59:11;;;;;;;7.30;3.55;;;18.30;89.60;;;;;;5057166;28;20036;-76
2021/05/12 11:01:45;;;;;;;6.30;4.35;;;18.30;89.20;;;;;;5055951;28;20048;-76
2021/05/12 11:04:14;;;;;;;9.27;4.75;;;18.50;90.10;;;;;;5057866;28;20025;-77
2021/05/12 11:06:42;;;;;;;7.70;4.28;;;18.60;88.40;;;;;;5058204;28;20025;-77
2021/05/12 11:09:18;;;;;;;6.55;4.28;;;18.80;85.20;;;;;;5058252;28;20324;-76
2021/05/12 11:11:45;;;;;;;6.75;3.47;;;18.90;82.60;;;;;;5058009;28;20094;-77
2021/05/12 11:14:32;;;;;;;5.50;3.30;;;19.00;84.50;;;;;;5056933;28;20371;-76
2021/05/12 11:17:12;;;;;;;7.78;3.50;;;19.20;82.80;;;;;;5058014;28;20071;-77
2021/05/12 11:19:58;;;;;;;7.03;4.05;;;19.30;79.10;;;;;;5055969;28;20091;-72
2021/05/12 11:22:28;;;;;;;;;;;19.30;81.40;;;;;;5054839;28;20337;-72
2021/05/12 11:25:09;;;;;;;7.82;4.00;;;19.30;78.90;;;;;;5055550;28;19909;-72
2021/05/12 11:28:18;;;;;;;6.20;3.85;;;19.30;79.10;;;;;;5057182;28;20343;-72
2021/05/12 11:33:39;;;;;;;6.93;3.97;;;19.40;81.10;;;;;;5056743;28;20161;-72
2021/05/12 11:36:11;;;;;;;7.47;3.50;;;19.50;78.00;;;;;;5057459;28;20023;-72
2021/05/12 11:38:40;;;;;;;6.90;3.33;;;19.50;80.20;;;;;;5057983;28;20025;-72
2021/05/12 11:41:19;;;;;;;6.90;3.70;;;19.60;77.70;;;;;;5057392;28;20024;-72
2021/05/12 11:43:53;;;;;;;6.50;3.55;;;19.60;76.30;;;;;;5057367;28;20452;-72
2021/05/12 11:46:27;;;;;;;6.28;4.15;;;19.40;77.90;;;;;;5057548;28;20029;-72
2021/05/12 11:48:57;;;;;;;6.22;4.10;;;19.20;77.70;;;;;;5057405;28;20325;-72
2021/05/12 11:51:54;;;;;;;6.13;4.22;;;18.90;80.50;;;;;;5057628;28;20021;-72
2021/05/12 11:54:25;;;;;;;5.65;3.28;;;18.70;81.20;;;;;;5056840;28;20036;-72
2021/05/12 11:56:55;;;;;;;7.53;4.20;;;18.50;82.40;;;;;;5056546;28;20025;-72
2021/05/12 11:59:32;;;;;;;4.60;3.50;;;18.40;83.60;;;;;;5056847;28;20037;-72
2021/05/12 12:02:08;;;;;;;5.82;3.80;;;18.50;84.20;;;;;;5056520;28;20095;-72
2021/05/12 12:04:39;;;;;;;8.73;3.67;;;18.60;80.80;;;;;;5056191;28;20074;-73
2021/05/12 12:07:08;;;;;;;5.47;3.63;;;18.60;81.60;;;;;;5055963;28;20325;-72
2021/05/12 12:09:36;;;;;;;6.40;4.03;;;18.70;80.40;;;;;;5055060;28;20029;-73
2021/05/12 12:12:04;;;;;;;6.90;3.67;;;18.70;79.50;;;;;;5057286;28;20080;-72
2021/05/12 12:14:33;;;;;;;4.15;2.67;;;18.60;80.60;;;;;;5057202;28;20413;-72
2021/05/12 12:17:01;;;;;;;5.38;2.72;;;18.60;77.60;;;;;;5056880;28;20025;-72
2021/05/12 12:19:28;;;;;;;3.83;2.28;;;18.60;74.50;;;;;;5057332;28;20314;-72
2021/05/12 12:21:56;;;;;;;5.68;2.67;;;18.70;76.20;;;;;;5057509;28;20021;-72
2021/05/12 12:24:26;;;;;;;4.22;2.42;;;18.80;75.00;;;;;;5056780;28;20114;-72
2021/05/12 12:26:56;;;;;;;6.60;2.65;;;18.90;76.00;;;;;;5054855;28;20032;-72
2021/05/12 12:29:33;;;;;;;4.75;2.30;;;18.90;76.00;;;;;;5056012;28;20366;-72
2021/05/12 12:32:09;;;;;;;6.53;2.58;;;18.80;74.10;;;;;;5054775;28;20032;-72
2021/05/12 12:34:46;;;;;;;4.82;2.00;;;18.70;76.20;;;;;;5059374;28;20047;-72
2021/05/12 12:37:20;;;;;;;2.58;1.83;;;18.60;75.30;;;;;;5060628;28;20475;-72
2021/05/12 12:39:55;;;;;;;4.05;2.00;;;18.40;75.60;;;;;;5059922;28;20032;-72
2021/05/12 12:42:29;;;;;;;5.95;1.88;;;18.20;76.90;;;;;;5059354;28;20092;-72
2021/05/12 12:45:01;;;;;;;7.93;2.60;;;18.10;77.80;;;;;;5061035;28;20100;-72
2021/05/12 12:47:29;;;;;;;8.07;2.67;;;18.10;76.10;;;;;;5060762;28;20020;-72
2021/05/12 12:50:08;;;;;;;6.43;2.17;;;18.10;78.40;;;;;;5060950;28;20033;-72
2021/05/12 12:52:41;;;;;;;6.88;2.22;;;18.10;77.60;;;;;;5060920;28;20359;-72